Flinterduin — PEBT — position and weather

sailwx.info

Track history (hours):
 
Tides and Currents Weather Stations Pressure Air Temp Water Temp Dewpoint Dewpoint Depression Visibility Wind Speed Wind Dir Waves Ship Positions

Flinterduin

Last reported at 2017-Sep-25 14:54 UTC. Time now 2017-Sep-25 17:17 UTC.
Position N 39°55' E 003°18'.

Length 112 m; beam 15 m.

Type: Cargo ship. MMSI: 246484000.

Date/timePositionNaut miles runAvg speedWind from/ knotsBaromVisibWave heightAir tempDewpointWater temp
2017-Sep-25 14:54N 39°55' E 003°18'4 9.0
2017-Sep-25 14:30N 39°52' E 003°16'4 8.4
2017-Sep-25 14:00N 39°49' E 003°12'2 4.9
2017-Sep-25 13:31N 39°50' E 003°09'0 0.0
2017-Sep-25 12:22N 39°50' E 003°09'0 0.0
2017-Sep-25 11:58N 39°50' E 003°09'0 0.0
2017-Sep-25 11:04N 39°50' E 003°09'0 0.0
2017-Sep-25 10:58N 39°50' E 003°09'0 0.0
2017-Sep-25 10:22N 39°50' E 003°09'0 0.0
2017-Sep-25 09:46N 39°50' E 003°09'0 0.0
2017-Sep-25 09:16N 39°50' E 003°09'0 0.0
2017-Sep-25 08:52N 39°50' E 003°09'0 0.0
2017-Sep-25 08:16N 39°50' E 003°09'0 0.0
2017-Sep-25 07:58N 39°50' E 003°09'0 0.0
2017-Sep-25 07:27N 39°50' E 003°09'0 0.0
2017-Sep-25 06:57N 39°50' E 003°09'0 0.0
2017-Sep-25 06:15N 39°50' E 003°09'0 0.0
2017-Sep-25 05:57N 39°50' E 003°09'0 0.0
2017-Sep-25 05:15N 39°50' E 003°09'0 0.0
2017-Sep-25 04:57N 39°50' E 003°09'0 0.0
2017-Sep-25 04:21N 39°50' E 003°09'0 0.0
2017-Sep-25 03:51N 39°50' E 003°09'0 0.0
2017-Sep-25 03:27N 39°50' E 003°09'0 0.0
2017-Sep-25 02:33N 39°50' E 003°09'0 0.0
2017-Sep-25 02:15N 39°50' E 003°09'0 0.0
2017-Sep-25 01:57N 39°50' E 003°09'0 0.0
2017-Sep-25 01:27N 39°50' E 003°09'0 0.0
2017-Sep-25 00:51N 39°50' E 003°09'0 0.0
2017-Sep-25 00:27N 39°50' E 003°09'0 0.0
2017-Sep-24 23:09N 39°50' E 003°09'0 0.0
2017-Sep-24 22:51N 39°50' E 003°09'0 0.0
2017-Sep-24 22:27N 39°50' E 003°09'0 0.0
2017-Sep-24 21:09N 39°50' E 003°09'0 0.0
2017-Sep-24 20:51N 39°50' E 003°09'0 0.0
2017-Sep-24 20:21N 39°50' E 003°09'0 0.0
2017-Sep-24 19:57N 39°50' E 003°09'0 0.0
2017-Sep-24 19:21N 39°50' E 003°09'0 0.0
2017-Sep-24 18:57N 39°50' E 003°09'0 0.0
2017-Sep-24 18:15N 39°50' E 003°09'0 0.1
2017-Sep-24 18:00N 39°50' E 003°09'1 1.6
2017-Sep-24 17:30N 39°49' E 003°09'0 0.2
2017-Sep-24 16:49N 39°49' E 003°09'0 0.0
2017-Sep-24 16:28N 39°49' E 003°09'0 0.0
2017-Sep-24 15:55N 39°49' E 003°09'0 0.0
2017-Sep-24 15:25N 39°49' E 003°09'0 0.0
2017-Sep-24 14:58N 39°49' E 003°09'0 0.0
2017-Sep-24 14:28N 39°49' E 003°09'0 0.0
2017-Sep-24 13:55N 39°49' E 003°09'0 0.0
2017-Sep-24 13:28N 39°49' E 003°09'0 0.0
2017-Sep-24 12:58N 39°49' E 003°09'0 0.0
2017-Sep-24 12:07N 39°49' E 003°09'0 0.1
2017-Sep-24 11:58N 39°49' E 003°09'0 0.0
2017-Sep-24 11:13N 39°49' E 003°09'0 0.0
2017-Sep-24 10:58N 39°49' E 003°09'0 0.2
2017-Sep-24 10:22N 39°49' E 003°09'0 0.1
2017-Sep-24 09:58N 39°49' E 003°09'0 0.0
2017-Sep-24 09:28N 39°49' E 003°09'0 0.0
2017-Sep-24 08:58N 39°49' E 003°09'0 0.0
2017-Sep-24 08:28N 39°49' E 003°09'0 0.0
2017-Sep-24 07:58N 39°49' E 003°09'0 0.0
2017-Sep-24 07:25N 39°49' E 003°09'0 0.0
2017-Sep-24 06:58N 39°49' E 003°09'0 0.0
2017-Sep-24 06:22N 39°49' E 003°09'0 0.0
2017-Sep-24 05:58N 39°49' E 003°09'0 0.0
2017-Sep-24 05:28N 39°49' E 003°09'0 0.0
2017-Sep-23 22:40N 39°49' E 003°09'0 0.1
2017-Sep-23 22:25N 39°49' E 003°09'0 0.0
2017-Sep-23 21:49N 39°49' E 003°09'0 0.1
2017-Sep-23 21:25N 39°49' E 003°09'0 0.1
2017-Sep-23 20:58N 39°49' E 003°09'0 0.1
2017-Sep-23 20:28N 39°49' E 003°09'0 0.0
2017-Sep-23 19:46N 39°49' E 003°09'320 7.4
2017-Sep-22 00:15N 36°26' W 002°06'28 8.4
2017-Sep-21 20:53N 36°19' W 002°40'129 9.2
2017-Sep-21 06:50N 35°59' W 005°18'3 9.7
2017-Sep-21 06:30N 35°58' W 005°22'5 9.4
2017-Sep-21 06:00N 35°57' W 005°28'5 9.8
2017-Sep-21 05:28N 35°56' W 005°34'510.0
2017-Sep-21 04:59N 35°54' W 005°39'510.4
2017-Sep-21 04:30N 35°53' W 005°45'5 9.7
2017-Sep-21 03:58N 35°53' W 005°52'9 9.1
2017-Sep-21 03:00N 35°54' W 006°03'72 7.6
2017-Sep-20 17:29N 36°09' W 007°30'4 7.8
2017-Sep-20 17:00N 36°10' W 007°35'4 8.5
2017-Sep-20 16:30N 36°12' W 007°40'4 8.4
2017-Sep-20 16:00N 36°13' W 007°45'4 8.4
2017-Sep-20 15:30N 36°14' W 007°50'4 8.2
2017-Sep-20 15:00N 36°15' W 007°55'8 8.4
2017-Sep-20 14:00N 36°18' W 008°04'4 8.6
2017-Sep-20 13:30N 36°19' W 008°10'4 8.8
2017-Sep-20 13:00N 36°20' W 008°15'4 8.6
2017-Sep-20 12:30N 36°21' W 008°20'4 8.6
2017-Sep-20 12:00N 36°22' W 008°25'5 8.5
2017-Sep-20 11:26N 36°23' W 008°31'4 8.9
2017-Sep-20 11:00N 36°24' W 008°36'11 8.8
2017-Sep-20 09:48N 36°27' W 008°48'4 8.5
2017-Sep-20 09:17N 36°28' W 008°54'2 8.5
2017-Sep-20 09:00N 36°29' W 008°57'4 8.7
2017-Sep-20 08:30N 36°30' W 009°02'4 8.9
2017-Sep-20 08:00N 36°31' W 009°07'5 9.0
2017-Sep-20 07:30N 36°32' W 009°13'6 9.2
2017-Sep-20 06:52N 36°35' W 009°19'1010.9
2017-Sep-20 05:59N 36°42' W 009°27'510.3
2017-Sep-20 05:30N 36°45' W 009°32'5 9.9
2017-Sep-20 05:00N 36°50' W 009°34'510.1
2017-Sep-20 04:30N 36°55' W 009°36'510.2
2017-Sep-20 04:00N 36°60' W 009°37'810.0
2017-Sep-20 03:13N 37°07' W 009°39'9 9.9
2017-Sep-20 02:19N 37°16' W 009°44'410.0
2017-Sep-20 01:57N 37°19' W 009°45'610.1
2017-Sep-20 01:21N 37°25' W 009°46'410.5
2017-Sep-20 00:58N 37°29' W 009°46'510.4
2017-Sep-20 00:30N 37°34' W 009°47'510.5
2017-Sep-20 00:00N 37°39' W 009°48'5 9.7
2017-Sep-19 23:28N 37°44' W 009°50'5 9.1
2017-Sep-19 22:57N 37°48' W 009°51'6 9.9
2017-Sep-19 22:22N 37°54' W 009°53'410.1
2017-Sep-19 21:57N 37°58' W 009°54'5 9.8
2017-Sep-19 21:29N 38°03' W 009°55'510.0
2017-Sep-19 21:00N 38°07' W 009°57'510.1
2017-Sep-19 20:30N 38°12' W 009°58'510.3
2017-Sep-19 20:00N 38°17' W 009°60'510.3
2017-Sep-19 19:30N 38°22' W 010°01'510.6
2017-Sep-19 19:00N 38°27' W 010°03'510.6
2017-Sep-19 18:30N 38°33' W 010°04'510.6
2017-Sep-19 18:00N 38°38' W 010°06'510.8
2017-Sep-19 17:30N 38°43' W 010°07'510.6
2017-Sep-19 17:00N 38°48' W 010°07'510.6
2017-Sep-19 16:30N 38°54' W 010°07'510.6
2017-Sep-19 16:00N 38°59' W 010°07'510.5
2017-Sep-19 15:29N 39°04' W 010°07'510.4
2017-Sep-19 15:00N 39°09' W 010°07'510.4
2017-Sep-19 14:30N 39°15' W 010°07'510.1
2017-Sep-19 14:00N 39°20' W 010°07'510.2
2017-Sep-19 13:30N 39°25' W 010°07'810.3
2017-Sep-19 12:44N 39°33' W 010°07'7210.1
2017-Sep-19 05:37N 40°44' W 010°07'  
2017-Sep-16 17:48N 49°52' W 005°05'310.8
2017-Sep-16 17:30N 49°55' W 005°03'510.5
2017-Sep-16 17:00N 49°60' W 005°00'510.0
2017-Sep-16 16:30N 50°05' W 005°01'1 1.7
2017-Sep-16 15:56N 50°06' W 005°01'0 0.0
2017-Sep-16 15:11N 50°06' W 005°01'0 0.1
2017-Sep-16 14:59N 50°06' W 005°01'0 0.0
2017-Sep-16 14:29N 50°06' W 005°01'0 0.0
2017-Sep-16 13:17N 50°06' W 005°01'0 0.1
2017-Sep-16 12:56N 50°06' W 005°01'0 0.1
2017-Sep-16 12:25N 50°06' W 005°01'1 3.3
2017-Sep-16 12:01N 50°06' W 004°59'3 6.2
2017-Sep-16 11:30N 50°05' W 004°55'5 9.1
2017-Sep-16 10:58N 50°04' W 004°47'4 9.1
2017-Sep-16 10:30N 50°03' W 004°41'5 9.2
2017-Sep-16 10:00N 50°02' W 004°34'5 9.4
2017-Sep-16 09:30N 50°02' W 004°26'5 9.4
2017-Sep-16 08:58N 50°01' W 004°18'4 9.4
2017-Sep-16 08:30N 50°01' W 004°12'5 9.3
2017-Sep-16 08:01N 50°01' W 004°05'5 9.3
2017-Sep-16 07:30N 50°01' W 003°57'5 9.3
2017-Sep-16 07:00N 50°01' W 003°50'510.1
2017-Sep-16 06:31N 50°01' W 003°42'4 8.9
2017-Sep-16 06:00N 49°60' W 003°35'4 8.8
2017-Sep-16 05:30N 49°60' W 003°29'4 9.0
2017-Sep-16 05:01N 49°60' W 003°22'5 9.0
2017-Sep-16 04:30N 49°60' W 003°15'5 9.0
2017-Sep-16 04:00N 49°60' W 003°08'4 8.9
2017-Sep-16 03:30N 49°59' W 003°01'4 8.6
2017-Sep-16 03:01N 50°00' W 002°54'4 8.6
2017-Sep-16 02:31N 50°02' W 002°48'4 8.7
2017-Sep-16 02:00N 50°03' W 002°41'25 9.3
2017-Sep-15 23:22N 50°09' W 002°04'410.7
2017-Sep-15 23:00N 50°10' W 001°58'511.0
2017-Sep-15 22:30N 50°12' W 001°50'611.1
2017-Sep-15 21:58N 50°14' W 001°41'511.1
2017-Sep-15 21:30N 50°15' W 001°34'511.0
2017-Sep-15 21:01N 50°16' W 001°25'510.8
2017-Sep-15 20:30N 50°18' W 001°17'39 9.1
2017-Sep-15 16:13N 50°29' W 000°18'2 8.0
2017-Sep-15 16:00N 50°29' W 000°16'4 8.2
2017-Sep-15 15:30N 50°30' W 000°10'4 8.4
2017-Sep-15 15:00N 50°31' W 000°03'  
Track history (hours):
 
Tides and Currents Weather Stations Pressure Air Temp Water Temp Dewpoint Dewpoint Depression Visibility Wind Speed Wind Dir Waves Ship Positions

Flinterduin

Last reported at 2017-Sep-25 14:54 UTC. Time now 2017-Sep-25 17:17 UTC.
Position N 39°55' E 003°18'.

Length 112 m; beam 15 m.

Type: Cargo ship. MMSI: 246484000.

Date/timePositionNaut miles runAvg speedWind from/ knotsBaromVisibWave heightAir tempDewpointWater temp
2017-Sep-25 14:54N 39°55' E 003°18'4 9.0
2017-Sep-25 14:30N 39°52' E 003°16'4 8.4
2017-Sep-25 14:00N 39°49' E 003°12'2 4.9
2017-Sep-25 13:31N 39°50' E 003°09'0 0.0
2017-Sep-25 12:22N 39°50' E 003°09'0 0.0
2017-Sep-25 11:58N 39°50' E 003°09'0 0.0
2017-Sep-25 11:04N 39°50' E 003°09'0 0.0
2017-Sep-25 10:58N 39°50' E 003°09'0 0.0
2017-Sep-25 10:22N 39°50' E 003°09'0 0.0
2017-Sep-25 09:46N 39°50' E 003°09'0 0.0
2017-Sep-25 09:16N 39°50' E 003°09'0 0.0
2017-Sep-25 08:52N 39°50' E 003°09'0 0.0
2017-Sep-25 08:16N 39°50' E 003°09'0 0.0
2017-Sep-25 07:58N 39°50' E 003°09'0 0.0
2017-Sep-25 07:27N 39°50' E 003°09'0 0.0
2017-Sep-25 06:57N 39°50' E 003°09'0 0.0
2017-Sep-25 06:15N 39°50' E 003°09'0 0.0
2017-Sep-25 05:57N 39°50' E 003°09'0 0.0
2017-Sep-25 05:15N 39°50' E 003°09'0 0.0
2017-Sep-25 04:57N 39°50' E 003°09'0 0.0
2017-Sep-25 04:21N 39°50' E 003°09'0 0.0
2017-Sep-25 03:51N 39°50' E 003°09'0 0.0
2017-Sep-25 03:27N 39°50' E 003°09'0 0.0
2017-Sep-25 02:33N 39°50' E 003°09'0 0.0
2017-Sep-25 02:15N 39°50' E 003°09'0 0.0
2017-Sep-25 01:57N 39°50' E 003°09'0 0.0
2017-Sep-25 01:27N 39°50' E 003°09'0 0.0
2017-Sep-25 00:51N 39°50' E 003°09'0 0.0
2017-Sep-25 00:27N 39°50' E 003°09'0 0.0
2017-Sep-24 23:09N 39°50' E 003°09'0 0.0
2017-Sep-24 22:51N 39°50' E 003°09'0 0.0
2017-Sep-24 22:27N 39°50' E 003°09'0 0.0
2017-Sep-24 21:09N 39°50' E 003°09'0 0.0
2017-Sep-24 20:51N 39°50' E 003°09'0 0.0
2017-Sep-24 20:21N 39°50' E 003°09'0 0.0
2017-Sep-24 19:57N 39°50' E 003°09'0 0.0
2017-Sep-24 19:21N 39°50' E 003°09'0 0.0
2017-Sep-24 18:57N 39°50' E 003°09'0 0.0
2017-Sep-24 18:15N 39°50' E 003°09'0 0.1
2017-Sep-24 18:00N 39°50' E 003°09'1 1.6
2017-Sep-24 17:30N 39°49' E 003°09'0 0.2
2017-Sep-24 16:49N 39°49' E 003°09'0 0.0
2017-Sep-24 16:28N 39°49' E 003°09'0 0.0
2017-Sep-24 15:55N 39°49' E 003°09'0 0.0
2017-Sep-24 15:25N 39°49' E 003°09'0 0.0
2017-Sep-24 14:58N 39°49' E 003°09'0 0.0
2017-Sep-24 14:28N 39°49' E 003°09'0 0.0
2017-Sep-24 13:55N 39°49' E 003°09'0 0.0
2017-Sep-24 13:28N 39°49' E 003°09'0 0.0
2017-Sep-24 12:58N 39°49' E 003°09'0 0.0
2017-Sep-24 12:07N 39°49' E 003°09'0 0.1
2017-Sep-24 11:58N 39°49' E 003°09'0 0.0
2017-Sep-24 11:13N 39°49' E 003°09'0 0.0
2017-Sep-24 10:58N 39°49' E 003°09'0 0.2
2017-Sep-24 10:22N 39°49' E 003°09'0 0.1
2017-Sep-24 09:58N 39°49' E 003°09'0 0.0
2017-Sep-24 09:28N 39°49' E 003°09'0 0.0
2017-Sep-24 08:58N 39°49' E 003°09'0 0.0
2017-Sep-24 08:28N 39°49' E 003°09'0 0.0
2017-Sep-24 07:58N 39°49' E 003°09'0 0.0
2017-Sep-24 07:25N 39°49' E 003°09'0 0.0
2017-Sep-24 06:58N 39°49' E 003°09'0 0.0
2017-Sep-24 06:22N 39°49' E 003°09'0 0.0
2017-Sep-24 05:58N 39°49' E 003°09'0 0.0
2017-Sep-24 05:28N 39°49' E 003°09'0 0.0
2017-Sep-23 22:40N 39°49' E 003°09'0 0.1
2017-Sep-23 22:25N 39°49' E 003°09'0 0.0
2017-Sep-23 21:49N 39°49' E 003°09'0 0.1
2017-Sep-23 21:25N 39°49' E 003°09'0 0.1
2017-Sep-23 20:58N 39°49' E 003°09'0 0.1
2017-Sep-23 20:28N 39°49' E 003°09'0 0.0
2017-Sep-23 19:46N 39°49' E 003°09'320 7.4
2017-Sep-22 00:15N 36°26' W 002°06'28 8.4
2017-Sep-21 20:53N 36°19' W 002°40'129 9.2
2017-Sep-21 06:50N 35°59' W 005°18'3 9.7
2017-Sep-21 06:30N 35°58' W 005°22'5 9.4
2017-Sep-21 06:00N 35°57' W 005°28'5 9.8
2017-Sep-21 05:28N 35°56' W 005°34'510.0
2017-Sep-21 04:59N 35°54' W 005°39'510.4
2017-Sep-21 04:30N 35°53' W 005°45'5 9.7
2017-Sep-21 03:58N 35°53' W 005°52'9 9.1
2017-Sep-21 03:00N 35°54' W 006°03'72 7.6
2017-Sep-20 17:29N 36°09' W 007°30'4 7.8
2017-Sep-20 17:00N 36°10' W 007°35'4 8.5
2017-Sep-20 16:30N 36°12' W 007°40'4 8.4
2017-Sep-20 16:00N 36°13' W 007°45'4 8.4
2017-Sep-20 15:30N 36°14' W 007°50'4 8.2
2017-Sep-20 15:00N 36°15' W 007°55'8 8.4
2017-Sep-20 14:00N 36°18' W 008°04'4 8.6
2017-Sep-20 13:30N 36°19' W 008°10'4 8.8
2017-Sep-20 13:00N 36°20' W 008°15'4 8.6
2017-Sep-20 12:30N 36°21' W 008°20'4 8.6
2017-Sep-20 12:00N 36°22' W 008°25'5 8.5
2017-Sep-20 11:26N 36°23' W 008°31'4 8.9
2017-Sep-20 11:00N 36°24' W 008°36'11 8.8
2017-Sep-20 09:48N 36°27' W 008°48'4 8.5
2017-Sep-20 09:17N 36°28' W 008°54'2 8.5
2017-Sep-20 09:00N 36°29' W 008°57'4 8.7
2017-Sep-20 08:30N 36°30' W 009°02'4 8.9
2017-Sep-20 08:00N 36°31' W 009°07'5 9.0
2017-Sep-20 07:30N 36°32' W 009°13'6 9.2
2017-Sep-20 06:52N 36°35' W 009°19'1010.9
2017-Sep-20 05:59N 36°42' W 009°27'510.3
2017-Sep-20 05:30N 36°45' W 009°32'5 9.9
2017-Sep-20 05:00N 36°50' W 009°34'510.1
2017-Sep-20 04:30N 36°55' W 009°36'510.2
2017-Sep-20 04:00N 36°60' W 009°37'810.0
2017-Sep-20 03:13N 37°07' W 009°39'9 9.9
2017-Sep-20 02:19N 37°16' W 009°44'410.0
2017-Sep-20 01:57N 37°19' W 009°45'610.1
2017-Sep-20 01:21N 37°25' W 009°46'410.5
2017-Sep-20 00:58N 37°29' W 009°46'510.4
2017-Sep-20 00:30N 37°34' W 009°47'510.5
2017-Sep-20 00:00N 37°39' W 009°48'5 9.7
2017-Sep-19 23:28N 37°44' W 009°50'5 9.1
2017-Sep-19 22:57N 37°48' W 009°51'6 9.9
2017-Sep-19 22:22N 37°54' W 009°53'410.1
2017-Sep-19 21:57N 37°58' W 009°54'5 9.8
2017-Sep-19 21:29N 38°03' W 009°55'510.0
2017-Sep-19 21:00N 38°07' W 009°57'510.1
2017-Sep-19 20:30N 38°12' W 009°58'510.3
2017-Sep-19 20:00N 38°17' W 009°60'510.3
2017-Sep-19 19:30N 38°22' W 010°01'510.6
2017-Sep-19 19:00N 38°27' W 010°03'510.6
2017-Sep-19 18:30N 38°33' W 010°04'510.6
2017-Sep-19 18:00N 38°38' W 010°06'510.8
2017-Sep-19 17:30N 38°43' W 010°07'510.6
2017-Sep-19 17:00N 38°48' W 010°07'510.6
2017-Sep-19 16:30N 38°54' W 010°07'510.6
2017-Sep-19 16:00N 38°59' W 010°07'510.5
2017-Sep-19 15:29N 39°04' W 010°07'510.4
2017-Sep-19 15:00N 39°09' W 010°07'510.4
2017-Sep-19 14:30N 39°15' W 010°07'510.1
2017-Sep-19 14:00N 39°20' W 010°07'510.2
2017-Sep-19 13:30N 39°25' W 010°07'810.3
2017-Sep-19 12:44N 39°33' W 010°07'7210.1
2017-Sep-19 05:37N 40°44' W 010°07'  
2017-Sep-16 17:48N 49°52' W 005°05'310.8
2017-Sep-16 17:30N 49°55' W 005°03'510.5
2017-Sep-16 17:00N 49°60' W 005°00'510.0
2017-Sep-16 16:30N 50°05' W 005°01'1 1.7
2017-Sep-16 15:56N 50°06' W 005°01'0 0.0
2017-Sep-16 15:11N 50°06' W 005°01'0 0.1
2017-Sep-16 14:59N 50°06' W 005°01'0 0.0
2017-Sep-16 14:29N 50°06' W 005°01'0 0.0
2017-Sep-16 13:17N 50°06' W 005°01'0 0.1
2017-Sep-16 12:56N 50°06' W 005°01'0 0.1
2017-Sep-16 12:25N 50°06' W 005°01'1 3.3
2017-Sep-16 12:01N 50°06' W 004°59'3 6.2
2017-Sep-16 11:30N 50°05' W 004°55'5 9.1
2017-Sep-16 10:58N 50°04' W 004°47'4 9.1
2017-Sep-16 10:30N 50°03' W 004°41'5 9.2
2017-Sep-16 10:00N 50°02' W 004°34'5 9.4
2017-Sep-16 09:30N 50°02' W 004°26'5 9.4
2017-Sep-16 08:58N 50°01' W 004°18'4 9.4
2017-Sep-16 08:30N 50°01' W 004°12'5 9.3
2017-Sep-16 08:01N 50°01' W 004°05'5 9.3
2017-Sep-16 07:30N 50°01' W 003°57'5 9.3
2017-Sep-16 07:00N 50°01' W 003°50'510.1
2017-Sep-16 06:31N 50°01' W 003°42'4 8.9
2017-Sep-16 06:00N 49°60' W 003°35'4 8.8
2017-Sep-16 05:30N 49°60' W 003°29'4 9.0
2017-Sep-16 05:01N 49°60' W 003°22'5 9.0
2017-Sep-16 04:30N 49°60' W 003°15'5 9.0
2017-Sep-16 04:00N 49°60' W 003°08'4 8.9
2017-Sep-16 03:30N 49°59' W 003°01'4 8.6
2017-Sep-16 03:01N 50°00' W 002°54'4 8.6
2017-Sep-16 02:31N 50°02' W 002°48'4 8.7
2017-Sep-16 02:00N 50°03' W 002°41'25 9.3
2017-Sep-15 23:22N 50°09' W 002°04'410.7
2017-Sep-15 23:00N 50°10' W 001°58'511.0
2017-Sep-15 22:30N 50°12' W 001°50'611.1
2017-Sep-15 21:58N 50°14' W 001°41'511.1
2017-Sep-15 21:30N 50°15' W 001°34'511.0
2017-Sep-15 21:01N 50°16' W 001°25'510.8
2017-Sep-15 20:30N 50°18' W 001°17'39 9.1
2017-Sep-15 16:13N 50°29' W 000°18'2 8.0
2017-Sep-15 16:00N 50°29' W 000°16'4 8.2
2017-Sep-15 15:30N 50°30' W 000°10'4 8.4
2017-Sep-15 15:00N 50°31' W 000°03'  

Dump ship's entire track history